createdAt,value
2022-09-26T00:01:34.857Z,18.75
2022-09-26T00:04:05.921Z,25.38
2022-09-26T00:06:34.662Z,21.70
2022-09-26T00:09:02.768Z,24.45
2022-09-26T00:11:34.508Z,23.98
2022-09-26T00:14:06.067Z,25.13
2022-09-26T00:16:35.916Z,19.90
2022-09-26T00:19:05.299Z,27.08
2022-09-26T00:21:33.702Z,22.45
2022-09-26T00:24:03.129Z,20.50
2022-09-26T00:26:34.914Z,25.20
2022-09-26T00:29:07.310Z,22.88
2022-09-26T00:31:39.375Z,24.95
2022-09-26T00:34:08.056Z,23.40
2022-09-26T00:36:38.313Z,20.70
2022-09-26T00:39:08.765Z,25.83
2022-09-26T00:41:39.514Z,26.50
2022-09-26T00:44:46.509Z,21.65
2022-09-26T00:47:30.514Z,25.83
2022-09-26T00:50:03.747Z,23.17
2022-09-26T00:52:37.047Z,25.40
2022-09-26T00:55:08.568Z,23.73
2022-09-26T00:57:42.967Z,23.05
2022-09-26T01:00:15.389Z,26.98
2022-09-26T01:02:46.505Z,17.70
2022-09-26T01:05:18.271Z,21.33
2022-09-26T01:07:48.942Z,24.73
2022-09-26T01:10:17.517Z,20.92
2022-09-26T01:12:46.925Z,28.02
2022-09-26T01:15:16.491Z,21.85
2022-09-26T01:17:46.931Z,27.10
2022-09-26T01:20:27.666Z,21.98
2022-09-26T01:23:45.387Z,21.92
2022-09-26T01:27:00.362Z,24.17
2022-09-26T01:30:03.915Z,27.08
2022-09-26T01:32:54.740Z,25.33
2022-09-26T01:36:05.620Z,28.63
2022-09-26T01:38:46.328Z,21.15
2022-09-26T01:41:32.674Z,27.33
2022-09-26T01:44:10.863Z,24.02
2022-09-26T01:46:47.840Z,25.48
2022-09-26T01:49:27.247Z,26.98
2022-09-26T01:52:00.959Z,29.05
2022-09-26T01:54:36.866Z,24.35
2022-09-26T01:57:07.733Z,24.13
2022-09-26T01:59:42.636Z,27.52
2022-09-26T02:02:17.380Z,28.42
2022-09-26T02:04:54.177Z,32.03
2022-09-26T02:07:31.409Z,31.10
2022-09-26T02:10:04.905Z,26.80
2022-09-26T02:15:08.238Z,31.08
2022-09-26T02:17:42.489Z,31.75
2022-09-26T02:20:16.887Z,26.17
2022-09-26T02:22:47.184Z,26.13
2022-09-26T02:25:16.659Z,29.73
2022-09-26T02:27:46.431Z,30.02
2022-09-26T02:30:14.915Z,22.85
2022-09-26T02:32:43.201Z,30.00
2022-09-26T02:35:36.797Z,24.88
2022-09-26T02:38:08.096Z,30.65
2022-09-26T02:40:52.066Z,29.58
2022-09-26T02:43:44.278Z,30.58
2022-09-26T02:46:29.802Z,31.55
2022-09-26T02:49:13.237Z,27.83
2022-09-26T02:52:02.530Z,29.48
2022-09-26T02:54:40.753Z,28.08
2022-09-26T02:57:22.602Z,24.50
2022-09-26T02:59:59.805Z,26.95
2022-09-26T03:02:35.217Z,27.17
2022-09-26T03:05:14.688Z,24.75
2022-09-26T03:07:48.321Z,28.58
2022-09-26T03:10:18.177Z,29.17
2022-09-26T03:12:47.542Z,21.20
2022-09-26T03:15:17.445Z,29.90
2022-09-26T03:17:51.521Z,25.35
2022-09-26T03:20:22.696Z,27.50
2022-09-26T03:22:55.055Z,30.23
2022-09-26T03:25:27.190Z,30.33
2022-09-26T03:28:10.788Z,33.75
2022-09-26T03:30:39.843Z,28.65
2022-09-26T03:33:34.254Z,28.70
2022-09-26T03:36:06.548Z,30.15
2022-09-26T03:38:36.251Z,27.48
2022-09-26T03:41:19.712Z,30.55
2022-09-26T03:44:05.494Z,31.02
2022-09-26T03:46:53.964Z,31.23
2022-09-26T03:49:22.119Z,28.52
2022-09-26T03:51:51.716Z,26.90
2022-09-26T03:54:21.807Z,31.10
2022-09-26T03:56:50.503Z,28.95
2022-09-26T03:59:18.838Z,27.58
2022-09-26T04:01:49.078Z,30.45
2022-09-26T04:04:17.289Z,34.72
2022-09-26T04:06:46.131Z,30.45
2022-09-26T04:09:17.722Z,28.25
2022-09-26T04:11:54.601Z,32.55
2022-09-26T04:14:23.118Z,35.78
2022-09-26T04:16:58.435Z,33.40
2022-09-26T04:19:30.602Z,28.73
2022-09-26T04:21:59.972Z,31.95
2022-09-26T04:24:32.934Z,32.40
2022-09-26T04:27:02.773Z,32.97
2022-09-26T04:29:33.727Z,30.15
2022-09-26T04:32:12.344Z,29.63
2022-09-26T04:35:03.265Z,32.63
2022-09-26T04:37:31.317Z,34.35
2022-09-26T04:39:59.606Z,30.58
2022-09-26T04:42:33.574Z,31.90
2022-09-26T04:45:02.073Z,32.20
2022-09-26T04:47:30.450Z,31.15
2022-09-26T04:50:17.649Z,27.95
2022-09-26T04:53:02.852Z,34.10
2022-09-26T04:55:31.822Z,30.50
2022-09-26T04:58:02.341Z,38.13
2022-09-26T05:00:31.965Z,38.20
2022-09-26T05:03:05.227Z,24.92
2022-09-26T05:05:34.012Z,33.92
2022-09-26T05:08:02.823Z,30.88
2022-09-26T05:10:32.856Z,30.33
2022-09-26T05:13:06.077Z,32.93
2022-09-26T05:15:39.466Z,29.58
2022-09-26T05:18:11.503Z,35.30
2022-09-26T05:20:40.366Z,34.13
2022-09-26T05:23:09.260Z,32.67
2022-09-26T05:25:57.658Z,28.55
2022-09-26T05:28:28.614Z,41.42
2022-09-26T05:30:57.411Z,31.52
2022-09-26T05:33:25.560Z,37.30
2022-09-26T05:35:54.939Z,32.80
2022-09-26T05:38:23.320Z,39.25
2022-09-26T05:40:59.850Z,42.28
2022-09-26T05:43:33.172Z,33.33
2022-09-26T05:46:05.151Z,27.17
2022-09-26T05:48:39.676Z,32.13
2022-09-26T05:51:14.187Z,32.83
2022-09-26T05:53:45.915Z,35.60
2022-09-26T05:56:19.258Z,29.52
2022-09-26T05:59:12.672Z,32.55
2022-09-26T06:01:59.498Z,35.90
2022-09-26T06:04:45.162Z,31.02
2022-09-26T06:07:31.899Z,30.35
2022-09-26T06:10:01.198Z,31.80
2022-09-26T06:12:38.329Z,32.45
2022-09-26T06:15:09.575Z,31.38
2022-09-26T06:17:38.778Z,34.63
2022-09-26T06:20:08.678Z,34.85
2022-09-26T06:22:42.193Z,31.45
2022-09-26T06:25:11.807Z,29.08
2022-09-26T06:27:42.555Z,25.83
2022-09-26T06:30:12.921Z,27.75
2022-09-26T06:32:42.967Z,28.55
2022-09-26T06:35:22.632Z,32.72
2022-09-26T06:38:11.486Z,28.40
2022-09-26T06:40:39.646Z,33.17
2022-09-26T06:43:07.675Z,31.45
2022-09-26T06:45:57.038Z,36.60
2022-09-26T06:48:32.310Z,32.30
2022-09-26T06:51:07.086Z,33.47
2022-09-26T06:53:36.132Z,32.00
2022-09-26T06:56:05.297Z,27.52
2022-09-26T06:58:34.375Z,20.15
2022-09-26T07:01:08.581Z,20.43
2022-09-26T07:04:00.389Z,17.20
2022-09-26T07:06:47.496Z,11.05
2022-09-26T07:09:16.441Z,11.57
2022-09-26T07:12:14.004Z,8.82
2022-09-26T07:14:42.853Z,9.13
2022-09-26T07:17:25.556Z,6.43
2022-09-26T07:20:26.954Z,8.05
2022-09-26T07:23:10.684Z,8.70
2022-09-26T07:25:40.556Z,12.90
2022-09-26T07:28:11.399Z,7.47
2022-09-26T07:30:50.461Z,9.10
2022-09-26T07:33:52.822Z,8.07
2022-09-26T07:36:21.319Z,7.45
2022-09-26T07:38:53.890Z,9.80
2022-09-26T07:41:25.393Z,7.80
2022-09-26T07:47:01.120Z,9.88
2022-09-26T07:49:48.542Z,8.82
2022-09-26T07:52:35.234Z,5.68
2022-09-26T07:55:17.303Z,8.30
2022-09-26T07:58:14.997Z,6.38
2022-09-26T08:00:53.493Z,6.85
2022-09-26T08:03:42.181Z,7.35
2022-09-26T08:06:24.154Z,10.07
2022-09-26T08:08:54.665Z,6.45
2022-09-26T08:11:41.916Z,6.90
2022-09-26T08:14:37.697Z,9.60
2022-09-26T08:17:19.131Z,5.05
2022-09-26T08:19:47.977Z,6.82
2022-09-26T08:22:18.159Z,6.00
2022-09-26T08:24:50.893Z,6.22
2022-09-26T08:27:59.573Z,5.90
2022-09-26T08:30:31.279Z,5.63
2022-09-26T08:33:02.191Z,3.95
2022-09-26T08:35:38.457Z,6.85
2022-09-26T08:38:27.995Z,5.55
2022-09-26T08:41:17.439Z,5.50
2022-09-26T08:44:24.358Z,5.38
2022-09-26T08:47:28.422Z,3.33
2022-09-26T08:50:24.244Z,3.75
2022-09-26T08:52:56.599Z,9.65
2022-09-26T08:55:31.042Z,5.47
2022-09-26T08:58:02.612Z,5.10
2022-09-26T09:00:34.405Z,5.70
2022-09-26T09:03:18.880Z,8.15
2022-09-26T09:05:51.336Z,5.50
2022-09-26T09:08:23.779Z,4.80
2022-09-26T09:11:21.148Z,3.90
2022-09-26T09:14:09.833Z,6.40
2022-09-26T09:17:10.146Z,5.30
2022-09-26T09:20:10.262Z,5.32
2022-09-26T09:23:12.935Z,3.53
2022-09-26T09:25:50.592Z,7.78
2022-09-26T09:28:32.255Z,4.47
2022-09-26T09:31:02.173Z,5.03
2022-09-26T09:33:35.828Z,4.15
2022-09-26T09:36:25.919Z,3.97
2022-09-26T09:39:22.299Z,4.28
2022-09-26T09:42:01.266Z,2.28
2022-09-26T09:44:45.637Z,3.00
2022-09-26T09:47:16.549Z,1.90
2022-09-26T09:49:45.943Z,4.85
2022-09-26T09:52:27.335Z,1.73
2022-09-26T09:55:06.955Z,4.22
2022-09-26T09:58:07.280Z,1.67
2022-09-26T10:00:42.638Z,2.55
2022-09-26T10:03:26.723Z,2.10
2022-09-26T10:05:59.816Z,3.20
2022-09-26T10:08:41.364Z,2.70
2022-09-26T10:11:26.300Z,2.28
2022-09-26T10:14:03.424Z,3.35
2022-09-26T10:17:18.946Z,1.38
2022-09-26T10:20:10.277Z,2.55
2022-09-26T10:22:45.808Z,2.17
2022-09-26T10:25:26.718Z,4.78
2022-09-26T10:27:57.603Z,3.08
2022-09-26T10:30:33.229Z,2.20
2022-09-26T10:33:06.761Z,2.53
2022-09-26T10:36:05.107Z,3.58
2022-09-26T10:38:55.556Z,2.47
2022-09-26T10:41:24.858Z,4.13
2022-09-26T10:43:57.668Z,1.27
2022-09-26T10:46:46.513Z,1.65
2022-09-26T10:50:02.832Z,4.78
2022-09-26T10:52:40.760Z,1.67
2022-09-26T10:55:15.008Z,1.58
2022-09-26T10:57:46.838Z,2.28
2022-09-26T11:00:21.967Z,4.32
2022-09-26T11:02:52.854Z,3.85
2022-09-26T11:05:42.224Z,1.77
2022-09-26T11:08:17.356Z,3.45
2022-09-26T11:11:00.471Z,2.60
2022-09-26T11:13:41.543Z,2.50
2022-09-26T11:16:17.176Z,3.78
2022-09-26T11:18:53.465Z,2.03
2022-09-26T11:21:29.675Z,2.20
2022-09-26T11:24:07.069Z,3.28
2022-09-26T11:26:43.643Z,3.13
2022-09-26T11:29:18.298Z,2.72
2022-09-26T11:32:05.184Z,2.13
2022-09-26T11:34:53.286Z,1.55
2022-09-26T11:37:33.192Z,1.42
2022-09-26T11:40:30.031Z,2.20
2022-09-26T11:43:11.095Z,3.45
2022-09-26T11:46:04.289Z,3.55
2022-09-26T11:49:24.506Z,2.05
2022-09-26T11:52:24.656Z,1.85
2022-09-26T11:55:09.664Z,1.58
2022-09-26T11:57:49.230Z,2.75
2022-09-26T12:00:27.610Z,2.05
2022-09-26T12:03:23.064Z,2.10
2022-09-26T12:05:59.859Z,2.50
2022-09-26T12:08:48.194Z,2.88
2022-09-26T12:11:34.215Z,1.75
2022-09-26T12:14:13.921Z,2.30
2022-09-26T12:16:51.956Z,1.80
2022-09-26T12:19:34.272Z,1.30
2022-09-26T12:22:27.978Z,2.97
2022-09-26T12:25:22.261Z,6.05
2022-09-26T12:28:02.320Z,2.55
2022-09-26T12:30:36.426Z,1.52
2022-09-26T12:33:33.684Z,2.15
2022-09-26T12:36:10.942Z,1.40
2022-09-26T12:38:57.070Z,1.50
2022-09-26T12:41:39.666Z,3.05
2022-09-26T12:44:27.334Z,1.55
2022-09-26T12:47:15.942Z,2.08
2022-09-26T12:50:14.705Z,1.70
2022-09-26T12:53:19.861Z,1.50
2022-09-26T12:55:59.868Z,1.42
2022-09-26T12:58:50.575Z,3.97
2022-09-26T13:01:37.890Z,1.73
2022-09-26T13:04:30.177Z,1.85
2022-09-26T13:07:20.947Z,1.48
2022-09-26T13:10:18.805Z,2.88
2022-09-26T13:13:05.579Z,2.40
2022-09-26T13:15:40.135Z,2.50
2022-09-26T13:18:23.039Z,2.00
2022-09-26T13:21:02.378Z,3.03
2022-09-26T13:23:35.943Z,1.90
2022-09-26T13:28:47.536Z,2.28
2022-09-26T13:31:31.822Z,2.15
2022-09-26T13:34:06.610Z,2.15
2022-09-26T13:36:37.396Z,2.85
2022-09-26T13:39:11.032Z,2.78
2022-09-26T13:44:28.560Z,2.40
2022-09-26T13:47:10.215Z,2.63
2022-09-26T13:49:52.231Z,3.55
2022-09-26T13:52:35.484Z,2.67
2022-09-26T13:55:12.424Z,3.75
2022-09-26T13:57:48.028Z,3.45
2022-09-26T14:00:49.441Z,3.65
2022-09-26T14:03:48.189Z,3.30
2022-09-26T14:06:30.913Z,1.80
2022-09-26T14:09:26.034Z,1.52
2022-09-26T14:12:30.695Z,2.00
2022-09-26T14:15:18.587Z,3.95
2022-09-26T14:18:09.302Z,1.77
2022-09-26T14:20:53.395Z,3.20
2022-09-26T14:24:13.032Z,2.70
2022-09-26T14:26:43.846Z,1.88
2022-09-26T14:29:26.869Z,2.00
2022-09-26T14:32:20.156Z,1.87
2022-09-26T14:34:54.975Z,2.58
2022-09-26T14:37:44.668Z,2.03
2022-09-26T14:40:31.278Z,1.65
2022-09-26T14:43:16.178Z,3.85
2022-09-26T14:45:49.004Z,2.00
2022-09-26T14:48:30.374Z,2.00
2022-09-26T14:51:02.966Z,4.05
2022-09-26T14:53:37.374Z,2.25
2022-09-26T14:56:13.413Z,2.75
2022-09-26T14:58:51.450Z,3.20
2022-09-26T15:01:31.829Z,1.83
2022-09-26T15:04:07.260Z,2.10
2022-09-26T15:06:42.931Z,1.30
2022-09-26T15:09:13.984Z,1.13
2022-09-26T15:11:46.028Z,0.88
2022-09-26T15:14:31.757Z,1.42
2022-09-26T15:17:02.498Z,3.47
2022-09-26T15:19:36.799Z,1.73
2022-09-26T15:22:12.953Z,2.63
2022-09-26T15:24:41.576Z,1.35
2022-09-26T15:27:16.055Z,14.23
2022-09-26T15:29:47.770Z,1.77
2022-09-26T15:32:20.724Z,1.30
2022-09-26T15:34:52.031Z,1.52
2022-09-26T15:37:24.048Z,0.75
2022-09-26T15:39:52.734Z,5.07
2022-09-26T15:42:43.878Z,1.90
2022-09-26T15:45:27.190Z,1.20
2022-09-26T15:47:56.419Z,3.50
2022-09-26T15:50:29.021Z,2.25
2022-09-26T15:53:05.023Z,0.85
2022-09-26T15:55:37.177Z,3.10
2022-09-26T15:58:08.689Z,0.82
2022-09-26T16:00:41.980Z,5.47
2022-09-26T16:03:35.413Z,1.38
2022-09-26T16:06:17.685Z,2.88
2022-09-26T16:08:51.600Z,2.40
2022-09-26T16:11:21.189Z,1.25
2022-09-26T16:13:53.748Z,2.45
2022-09-26T16:16:32.217Z,2.45
2022-09-26T16:19:03.384Z,1.25
2022-09-26T16:21:36.880Z,2.85
2022-09-26T16:24:28.084Z,0.88
2022-09-26T16:26:57.887Z,0.98
2022-09-26T16:29:36.826Z,4.40
2022-09-26T16:32:05.709Z,1.27
2022-09-26T16:34:35.384Z,1.73
2022-09-26T16:37:04.957Z,3.45
2022-09-26T16:39:35.749Z,2.85
2022-09-26T16:42:15.481Z,2.63
2022-09-26T16:44:52.155Z,4.55
2022-09-26T16:47:35.406Z,2.75
2022-09-26T16:50:28.034Z,1.75
2022-09-26T16:52:58.473Z,2.00
2022-09-26T16:55:27.399Z,2.63
2022-09-26T16:57:58.961Z,2.22
2022-09-26T17:00:49.946Z,1.85
2022-09-26T17:03:25.331Z,1.58
2022-09-26T17:05:55.959Z,1.85
2022-09-26T17:08:29.466Z,1.73
2022-09-26T17:11:03.160Z,5.95
2022-09-26T17:13:35.198Z,3.47
2022-09-26T17:16:03.898Z,4.75
2022-09-26T17:18:33.811Z,4.38
2022-09-26T17:21:02.188Z,1.88
2022-09-26T17:23:40.342Z,2.85
2022-09-26T17:26:18.685Z,3.22
2022-09-26T17:28:47.104Z,3.17
2022-09-26T17:31:19.643Z,2.08
2022-09-26T17:33:49.843Z,2.25
2022-09-26T17:36:23.242Z,4.30
2022-09-26T17:38:53.577Z,3.80
2022-09-26T17:41:22.231Z,2.90
2022-09-26T17:43:59.060Z,2.13
2022-09-26T17:46:29.722Z,2.40
2022-09-26T17:48:59.361Z,3.45
2022-09-26T17:51:27.886Z,4.78
2022-09-26T17:53:59.624Z,3.63
2022-09-26T17:56:28.628Z,4.30
2022-09-26T17:58:57.537Z,3.00
2022-09-26T18:01:27.927Z,4.15
2022-09-26T18:04:01.323Z,4.05
2022-09-26T18:06:33.088Z,5.35
2022-09-26T18:09:10.341Z,5.78
2022-09-26T18:11:41.695Z,3.67
2022-09-26T18:14:17.164Z,3.85
2022-09-26T18:16:46.574Z,8.05
2022-09-26T18:19:14.918Z,4.07
2022-09-26T18:21:44.242Z,3.50
2022-09-26T18:24:19.848Z,6.95
2022-09-26T18:26:50.812Z,5.85
2022-09-26T18:29:23.904Z,5.22
2022-09-26T18:31:51.844Z,6.18
2022-09-26T18:34:20.503Z,6.10
2022-09-26T18:36:50.090Z,4.82
2022-09-26T18:39:19.904Z,5.03
2022-09-26T18:41:50.799Z,7.97
2022-09-26T18:44:20.182Z,7.20
2022-09-26T18:46:49.285Z,7.97
2022-09-26T18:49:17.872Z,5.97
2022-09-26T18:51:46.893Z,5.88
2022-09-26T18:54:16.885Z,6.93
2022-09-26T18:57:04.445Z,7.50
2022-09-26T18:59:32.391Z,4.10
2022-09-26T19:02:02.696Z,6.28
2022-09-26T19:04:31.505Z,4.65
2022-09-26T19:07:02.208Z,3.42
2022-09-26T19:09:34.143Z,3.65
2022-09-26T19:12:04.432Z,2.40
2022-09-26T19:14:32.874Z,4.80
2022-09-26T19:17:01.051Z,5.15
2022-09-26T19:19:30.203Z,4.75
2022-09-26T19:22:00.324Z,5.90
2022-09-26T19:24:32.521Z,5.40
2022-09-26T19:27:06.620Z,6.50
2022-09-26T19:29:39.706Z,4.13
2022-09-26T19:32:11.991Z,2.92
2022-09-26T19:34:40.367Z,4.43
2022-09-26T19:37:10.407Z,5.20
2022-09-26T19:39:38.897Z,4.57
2022-09-26T19:42:09.804Z,2.67
2022-09-26T19:44:37.477Z,4.25
2022-09-26T19:47:05.498Z,2.92
2022-09-26T19:49:33.606Z,4.88
2022-09-26T19:52:02.542Z,2.78
2022-09-26T19:54:30.465Z,9.68
2022-09-26T19:56:58.837Z,6.68
2022-09-26T19:59:28.112Z,3.13
2022-09-26T20:01:56.242Z,1.80
2022-09-26T20:04:24.222Z,2.25
2022-09-26T20:06:51.905Z,4.25
2022-09-26T20:09:21.368Z,2.60
2022-09-26T20:11:49.517Z,2.17
2022-09-26T20:14:26.479Z,2.75
2022-09-26T20:16:59.095Z,2.83
2022-09-26T20:19:35.199Z,2.57
2022-09-26T20:22:05.324Z,1.70
2022-09-26T20:24:34.331Z,2.30
2022-09-26T20:27:04.311Z,2.38
2022-09-26T20:29:52.192Z,5.75
2022-09-26T20:32:21.565Z,4.30
2022-09-26T20:34:49.715Z,2.13
2022-09-26T20:37:19.980Z,2.53
2022-09-26T20:39:48.121Z,3.85
2022-09-26T20:42:18.826Z,2.45
2022-09-26T20:44:48.682Z,1.75
2022-09-26T20:47:21.828Z,2.10
2022-09-26T20:49:54.861Z,3.20
2022-09-26T21:07:38.956Z,3.03
2022-09-26T21:10:22.055Z,3.95
2022-09-26T21:12:50.146Z,3.45
2022-09-26T21:15:17.955Z,2.60
2022-09-26T21:17:47.710Z,1.42
2022-09-26T21:20:18.013Z,2.15
2022-09-26T21:23:01.785Z,1.88
2022-09-26T21:25:31.187Z,2.15
2022-09-26T21:28:01.247Z,1.77
2022-09-26T21:30:30.477Z,3.30
2022-09-26T21:33:00.096Z,2.53
2022-09-26T21:35:31.653Z,1.73
2022-09-26T21:38:02.298Z,1.73
2022-09-26T21:40:33.168Z,1.60
2022-09-26T21:43:07.141Z,2.42
2022-09-26T21:45:35.703Z,2.67
2022-09-26T21:48:04.101Z,2.35
2022-09-26T21:50:32.174Z,2.92
2022-09-26T21:53:04.713Z,1.83
2022-09-26T21:55:37.256Z,2.53
2022-09-26T21:58:10.383Z,2.17
2022-09-26T22:00:38.538Z,4.15
2022-09-26T22:03:06.797Z,1.80
2022-09-26T22:05:35.070Z,5.32
2022-09-26T22:08:04.539Z,3.20
2022-09-26T22:10:32.948Z,2.83
2022-09-26T22:13:01.186Z,2.40
2022-09-26T22:15:29.699Z,3.08
2022-09-26T22:17:58.116Z,2.67
2022-09-26T22:20:26.611Z,1.50
2022-09-26T22:22:55.491Z,1.83
2022-09-26T22:25:25.392Z,3.53
2022-09-26T22:27:53.650Z,2.92
2022-09-26T22:30:21.844Z,4.90
2022-09-26T22:32:50.818Z,3.22
2022-09-26T22:35:19.099Z,2.92
2022-09-26T22:37:47.170Z,2.28
2022-09-26T22:40:15.523Z,1.80
2022-09-26T22:42:44.908Z,4.03
2022-09-26T22:45:12.893Z,2.28
2022-09-26T22:47:40.658Z,3.13
2022-09-26T22:50:09.447Z,1.75
2022-09-26T22:52:37.315Z,2.95
2022-09-26T22:55:05.960Z,2.58
2022-09-26T22:57:33.919Z,2.45
2022-09-26T23:00:03.926Z,1.88
2022-09-26T23:02:31.850Z,1.58
2022-09-26T23:04:59.865Z,2.28
2022-09-26T23:07:27.723Z,3.50
2022-09-26T23:09:55.581Z,2.75
2022-09-26T23:12:23.467Z,2.72
2022-09-26T23:14:51.134Z,2.92
2022-09-26T23:17:20.421Z,2.08
2022-09-26T23:19:48.062Z,2.55
2022-09-26T23:22:15.842Z,2.30
2022-09-26T23:24:45.989Z,2.75
2022-09-26T23:27:13.737Z,2.25
2022-09-26T23:29:41.975Z,2.83
2022-09-26T23:32:09.997Z,2.28
2022-09-26T23:34:39.184Z,3.10
2022-09-26T23:37:06.915Z,2.30
2022-09-26T23:39:34.915Z,2.75
2022-09-26T23:42:02.582Z,2.47
2022-09-26T23:44:30.506Z,1.85
2022-09-26T23:46:59.888Z,2.10
2022-09-26T23:49:28.326Z,2.75
2022-09-26T23:51:57.482Z,4.28
2022-09-26T23:54:25.178Z,2.28
2022-09-26T23:56:53.127Z,2.25
2022-09-26T23:59:20.933Z,3.05
